Time;durP1;ratioP1;P1;durP2;ratioP2;P2;SDS_P1;SDS_P2;PMS_P1;PMS_P2;Temp;Humidity;BMP_temperature;BMP_pressure;BME280_temperature;BME280_humidity;BME280_pressure;Samples;Min_cycle;Max_cycle;Signal;HPM_P1;HPM_P2
2021/05/28 00:01:04;;;;;;;11.97;6.33;;;9.50;91.30;;;;;;5015311;28;20559;-86
2021/05/28 00:03:30;;;;;;;20.50;7.60;;;9.40;91.20;;;;;;5015277;28;20664;-86
2021/05/28 00:05:56;;;;;;;13.07;6.73;;;9.30;91.10;;;;;;5015435;28;20280;-86
2021/05/28 00:08:21;;;;;;;17.03;6.37;;;9.30;90.90;;;;;;5015360;28;20172;-86
2021/05/28 00:10:47;;;;;;;13.70;6.97;;;9.30;90.90;;;;;;5016109;28;20256;-85
2021/05/28 00:13:13;;;;;;;17.67;7.20;;;9.30;90.90;;;;;;5036931;28;20556;-85
2021/05/28 00:15:40;;;;;;;11.33;6.87;;;9.20;90.90;;;;;;5037278;28;20197;-85
2021/05/28 00:18:08;;;;;;;13.07;6.60;;;9.20;90.90;;;;;;5019565;28;20209;-85
2021/05/28 00:20:34;;;;;;;15.00;7.03;;;9.20;91.10;;;;;;5037089;28;20161;-85
2021/05/28 00:22:59;;;;;;;11.07;6.40;;;9.20;91.10;;;;;;5036774;28;20295;-85
2021/05/28 00:25:25;;;;;;;12.87;6.90;;;9.20;91.10;;;;;;5036751;28;20223;-85
2021/05/28 00:27:50;;;;;;;12.17;5.87;;;9.10;91.00;;;;;;5019244;28;20642;-85
2021/05/28 00:30:16;;;;;;;19.10;6.40;;;9.00;91.00;;;;;;5036623;28;20223;-85
2021/05/28 00:32:42;;;;;;;15.37;7.37;;;8.90;91.10;;;;;;5036640;28;20687;-86
2021/05/28 00:35:08;;;;;;;17.17;7.53;;;8.90;91.00;;;;;;5018809;28;20293;-85
2021/05/28 00:37:33;;;;;;;16.13;6.63;;;8.80;91.10;;;;;;5036579;28;20172;-85
2021/05/28 00:39:59;;;;;;;11.70;7.33;;;8.80;91.20;;;;;;5036970;28;20169;-85
2021/05/28 00:42:25;;;;;;;13.03;7.17;;;8.80;91.30;;;;;;5036397;28;20270;-85
2021/05/28 00:44:51;;;;;;;13.37;6.40;;;8.80;91.40;;;;;;5036562;28;20240;-85
2021/05/28 00:47:16;;;;;;;16.37;6.83;;;8.80;91.30;;;;;;5018665;28;20183;-85
2021/05/28 00:49:42;;;;;;;14.83;6.50;;;8.80;91.20;;;;;;5018617;28;20196;-86
2021/05/28 00:52:08;;;;;;;14.80;7.17;;;8.80;91.10;;;;;;5036255;28;20191;-85
2021/05/28 00:54:33;;;;;;;12.97;7.50;;;8.80;91.30;;;;;;5036169;28;20208;-85
2021/05/28 00:56:59;;;;;;;20.17;6.93;;;8.80;91.40;;;;;;5018540;28;20551;-85
2021/05/28 00:59:25;;;;;;;17.57;7.03;;;8.80;91.40;;;;;;5018489;28;20177;-86
2021/05/28 01:01:51;;;;;;;17.73;7.20;;;8.70;91.30;;;;;;5018391;28;20200;-86
2021/05/28 01:04:17;;;;;;;16.67;7.43;;;8.70;91.20;;;;;;5036049;28;20196;-85
2021/05/28 01:06:43;;;;;;;16.80;8.23;;;8.70;91.40;;;;;;5035966;28;20177;-85
2021/05/28 01:09:09;;;;;;;15.70;6.93;;;8.70;91.40;;;;;;5036070;28;20177;-86
2021/05/28 01:11:37;;;;;;;13.87;7.33;;;8.70;91.30;;;;;;5018279;28;20187;-85
2021/05/28 01:14:04;;;;;;;14.83;7.50;;;8.70;91.30;;;;;;5035914;28;20200;-85
2021/05/28 01:16:29;;;;;;;10.20;6.40;;;8.70;91.20;;;;;;5036218;28;20177;-85
2021/05/28 01:18:57;;;;;;;10.20;6.40;;;8.50;91.20;;;;;;5035776;28;20545;-85
2021/05/28 01:21:23;;;;;;;11.70;6.47;;;8.50;91.20;;;;;;5035235;28;20239;-85
2021/05/28 01:23:49;;;;;;;10.67;6.40;;;8.50;91.20;;;;;;5035694;28;20196;-85
2021/05/28 01:26:14;;;;;;;13.67;7.07;;;8.40;91.10;;;;;;5035618;28;20541;-86
2021/05/28 01:28:40;;;;;;;15.30;7.03;;;8.40;91.00;;;;;;5035877;28;20180;-86
2021/05/28 01:31:07;;;;;;;9.27;6.37;;;8.30;90.90;;;;;;5017903;28;20653;-86
2021/05/28 01:33:33;;;;;;;11.50;6.97;;;8.30;90.90;;;;;;5035630;28;20569;-86
2021/05/28 01:35:59;;;;;;;14.20;7.10;;;8.30;91.00;;;;;;5035342;28;20173;-86
2021/05/28 01:38:25;;;;;;;15.03;6.17;;;8.30;91.10;;;;;;5035647;28;20179;-86
2021/05/28 01:40:52;;;;;;;12.37;6.23;;;8.30;91.00;;;;;;5017668;28;20271;-86
2021/05/28 01:43:17;;;;;;;10.37;6.23;;;8.30;90.90;;;;;;5017561;28;20299;-86
2021/05/28 01:45:43;;;;;;;13.27;6.57;;;8.20;91.00;;;;;;5035357;28;20212;-86
2021/05/28 01:48:09;;;;;;;16.57;7.27;;;8.30;91.00;;;;;;5017507;28;20192;-85
2021/05/28 01:50:43;;;;;;;15.10;6.87;;;8.20;90.90;;;;;;5017519;28;20188;-85
2021/05/28 01:53:27;;;;;;;19.47;6.83;;;8.20;90.80;;;;;;5035230;28;20659;-85
2021/05/28 01:55:54;;;;;;;12.07;6.47;;;8.20;90.90;;;;;;5017451;28;20181;-86
2021/05/28 01:58:22;;;;;;;13.43;6.33;;;8.20;91.00;;;;;;5017312;28;20173;-85
2021/05/28 02:00:51;;;;;;;17.97;5.50;;;8.20;90.90;;;;;;5035086;28;20541;-85
2021/05/28 02:03:17;;;;;;;15.03;6.30;;;8.20;90.90;;;;;;5017246;28;20204;-85
2021/05/28 02:05:45;;;;;;;13.97;5.90;;;8.10;90.90;;;;;;5035029;28;20177;-85
2021/05/28 02:08:11;;;;;;;13.00;6.07;;;8.10;90.80;;;;;;5035238;28;20536;-86
2021/05/28 02:10:36;;;;;;;14.97;6.50;;;8.10;90.80;;;;;;5034938;28;20239;-85
2021/05/28 02:13:03;;;;;;;13.03;6.70;;;8.10;90.80;;;;;;5035110;28;20204;-85
2021/05/28 02:15:29;;;;;;;12.13;6.50;;;8.10;90.80;;;;;;5034666;28;20668;-85
2021/05/28 02:17:55;;;;;;;13.07;6.70;;;8.10;90.90;;;;;;5034807;28;20177;-85
2021/05/28 02:20:22;;;;;;;12.87;6.30;;;8.10;90.80;;;;;;5016913;28;20183;-85
2021/05/28 02:22:48;;;;;;;13.57;6.07;;;8.10;90.90;;;;;;5016866;28;20204;-85
2021/05/28 02:25:14;;;;;;;12.30;6.27;;;8.10;91.00;;;;;;5034453;28;20179;-85
2021/05/28 02:27:40;;;;;;;11.17;5.53;;;8.20;91.00;;;;;;5034799;28;20230;-85
2021/05/28 02:30:08;;;;;;;12.37;5.33;;;8.20;91.00;;;;;;5034452;28;20311;-85
2021/05/28 02:32:33;;;;;;;8.43;5.40;;;8.30;91.10;;;;;;5016902;28;20227;-86
2021/05/28 02:34:59;;;;;;;9.53;5.07;;;8.30;91.00;;;;;;5033358;28;20669;-86
2021/05/28 02:37:25;;;;;;;10.40;4.60;;;8.30;90.90;;;;;;5034468;28;20172;-85
2021/05/28 02:39:51;;;;;;;9.60;5.30;;;8.30;91.00;;;;;;5016488;28;20652;-85
2021/05/28 02:42:17;;;;;;;9.03;5.40;;;8.40;91.00;;;;;;5016260;28;20295;-85
2021/05/28 02:44:42;;;;;;;13.60;5.77;;;8.50;90.90;;;;;;5016550;28;20188;-85
2021/05/28 02:47:09;;;;;;;9.23;4.77;;;8.70;90.70;;;;;;5034264;28;20188;-85
2021/05/28 02:49:36;;;;;;;9.60;5.00;;;8.70;90.50;;;;;;5034317;28;20248;-85
2021/05/28 02:52:04;;;;;;;13.20;5.13;;;8.70;90.50;;;;;;5033899;28;20637;-85
2021/05/28 02:54:29;;;;;;;10.90;5.10;;;8.70;90.50;;;;;;5033963;28;20204;-85
2021/05/28 02:56:55;;;;;;;11.63;4.87;;;8.80;90.70;;;;;;5033973;28;20176;-85
2021/05/28 02:59:21;;;;;;;11.20;5.10;;;8.80;90.70;;;;;;5033949;28;20227;-85
2021/05/28 03:01:47;;;;;;;10.67;4.77;;;8.80;90.60;;;;;;5033955;28;20609;-85
2021/05/28 03:04:14;;;;;;;7.87;4.77;;;8.90;90.70;;;;;;5034134;28;20200;-86
2021/05/28 03:06:40;;;;;;;8.90;5.00;;;8.90;90.70;;;;;;5016196;28;20188;-85
2021/05/28 03:09:06;;;;;;;11.00;5.00;;;9.00;90.90;;;;;;5033896;28;20703;-85
2021/05/28 03:11:32;;;;;;;6.73;4.60;;;9.00;90.80;;;;;;5033788;28;20284;-85
2021/05/28 03:13:57;;;;;;;7.23;4.90;;;9.10;91.10;;;;;;5015899;28;20278;-85
2021/05/28 03:16:23;;;;;;;11.30;4.73;;;9.30;91.40;;;;;;5033724;28;20173;-85
2021/05/28 03:18:52;;;;;;;8.17;4.40;;;9.40;91.20;;;;;;5033648;28;20169;-85
2021/05/28 03:23:56;;;;;;;8.60;4.67;;;9.80;89.90;;;;;;5033503;28;20246;-85
2021/05/28 03:26:22;;;;;;;12.13;4.63;;;9.50;89.30;;;;;;5015646;28;20553;-85
2021/05/28 03:28:48;;;;;;;7.73;5.10;;;9.30;89.70;;;;;;5015732;28;20275;-86
2021/05/28 03:31:14;;;;;;;11.97;5.00;;;9.40;89.80;;;;;;5033396;28;20251;-86
2021/05/28 03:33:41;;;;;;;6.90;4.70;;;9.50;89.60;;;;;;5033238;28;20675;-86
2021/05/28 03:36:07;;;;;;;7.57;5.00;;;9.50;89.50;;;;;;5033668;28;20204;-85
2021/05/28 03:38:33;;;;;;;14.90;5.97;;;9.50;89.70;;;;;;5033290;28;20191;-85
2021/05/28 03:40:59;;;;;;;10.53;6.20;;;9.60;89.90;;;;;;5033243;28;20189;-85
2021/05/28 03:43:25;;;;;;;10.63;5.20;;;9.90;89.60;;;;;;5015436;28;20212;-86
2021/05/28 03:45:51;;;;;;;10.23;5.17;;;10.00;89.10;;;;;;5033226;28;20255;-86
2021/05/28 03:48:17;;;;;;;14.53;6.10;;;10.10;89.00;;;;;;5033172;28;20187;-85
2021/05/28 03:50:43;;;;;;;13.07;5.80;;;10.20;88.80;;;;;;5015597;28;20176;-85
2021/05/28 03:53:08;;;;;;;13.50;6.50;;;10.20;88.70;;;;;;5015377;28;20200;-85
2021/05/28 03:55:34;;;;;;;10.67;6.47;;;10.10;88.80;;;;;;5033016;28;20200;-86
2021/05/28 03:58:00;;;;;;;14.00;6.73;;;9.90;89.10;;;;;;5015456;28;20628;-85
2021/05/28 04:00:26;;;;;;;14.40;6.50;;;9.80;89.60;;;;;;5033193;28;20176;-86
2021/05/28 04:02:52;;;;;;;18.13;7.50;;;9.70;89.80;;;;;;5032979;28;20279;-85
2021/05/28 04:05:18;;;;;;;19.63;8.10;;;9.50;90.10;;;;;;5033094;28;20185;-86
2021/05/28 04:07:44;;;;;;;15.27;9.13;;;9.50;90.60;;;;;;5033059;28;20180;-85
2021/05/28 04:10:10;;;;;;;14.40;7.97;;;9.50;90.90;;;;;;5033004;28;20187;-86
2021/05/28 04:12:36;;;;;;;18.60;8.97;;;9.60;91.00;;;;;;5015065;28;20347;-85
2021/05/28 04:15:02;;;;;;;16.60;9.63;;;9.50;91.10;;;;;;5015174;28;20292;-85
2021/05/28 04:17:27;;;;;;;14.83;8.03;;;9.60;91.30;;;;;;5032869;28;20177;-85
2021/05/28 04:19:53;;;;;;;16.93;9.13;;;9.60;91.40;;;;;;5015647;28;20181;-86
2021/05/28 04:22:18;;;;;;;17.27;8.97;;;9.60;91.60;;;;;;5032810;28;20192;-86
2021/05/28 04:24:45;;;;;;;14.73;8.90;;;9.60;91.60;;;;;;5032845;28;20176;-85
2021/05/28 04:27:11;;;;;;;19.40;9.90;;;9.50;91.80;;;;;;5033456;28;20179;-86
2021/05/28 04:29:37;;;;;;;14.07;9.73;;;9.60;92.00;;;;;;5015438;28;20647;-86
2021/05/28 04:32:03;;;;;;;18.57;10.40;;;9.70;92.20;;;;;;5032629;28;20179;-85
2021/05/28 04:34:29;;;;;;;15.37;10.73;;;9.90;92.30;;;;;;5015528;28;20205;-85
2021/05/28 04:36:54;;;;;;;17.43;10.40;;;9.80;92.20;;;;;;5015076;28;20239;-85
2021/05/28 04:39:20;;;;;;;13.20;9.40;;;9.70;92.20;;;;;;5032754;28;20177;-86
2021/05/28 04:41:46;;;;;;;15.57;10.00;;;9.70;92.30;;;;;;5032790;28;20625;-85
2021/05/28 04:44:12;;;;;;;18.97;11.37;;;9.80;92.50;;;;;;5014869;28;20684;-85
2021/05/28 04:46:37;;;;;;;22.40;11.23;;;9.80;92.40;;;;;;5015068;28;20708;-85
2021/05/28 04:49:03;;;;;;;22.17;10.30;;;9.80;92.40;;;;;;5032699;28;20641;-85
2021/05/28 04:51:28;;;;;;;20.10;10.50;;;9.80;92.40;;;;;;5032717;28;20212;-85
2021/05/28 04:53:54;;;;;;;15.03;10.33;;;9.80;92.30;;;;;;5032528;28;20329;-86
2021/05/28 04:56:20;;;;;;;14.73;10.23;;;9.80;92.30;;;;;;5014829;28;20526;-85
2021/05/28 04:58:45;;;;;;;14.17;10.10;;;9.80;92.20;;;;;;5036063;28;20183;-85
2021/05/28 05:01:11;;;;;;;14.97;9.90;;;9.80;92.10;;;;;;5036117;28;20176;-85
2021/05/28 05:03:36;;;;;;;18.87;10.93;;;9.90;92.10;;;;;;5018410;28;20201;-86
2021/05/28 05:06:03;;;;;;;27.00;12.17;;;9.90;92.20;;;;;;5036077;28;20584;-85
2021/05/28 05:08:30;;;;;;;13.87;9.93;;;9.90;92.20;;;;;;5036037;28;20183;-86
2021/05/28 05:10:56;;;;;;;15.13;8.33;;;9.90;92.00;;;;;;5036052;28;20170;-85
2021/05/28 05:13:23;;;;;;;12.37;7.87;;;9.80;91.70;;;;;;5018599;28;20226;-85
2021/05/28 05:15:49;;;;;;;13.10;8.27;;;9.90;91.60;;;;;;5035857;28;20235;-86
2021/05/28 05:18:14;;;;;;;17.70;7.90;;;9.90;91.50;;;;;;5018316;28;20180;-85
2021/05/28 05:20:40;;;;;;;12.00;7.50;;;9.90;90.70;;;;;;5017975;28;20183;-85
2021/05/28 05:23:06;;;;;;;19.10;9.07;;;9.90;90.70;;;;;;5035622;28;20241;-85
2021/05/28 05:25:32;;;;;;;11.90;7.43;;;10.00;90.70;;;;;;5017971;28;20180;-85
2021/05/28 05:27:58;;;;;;;16.27;8.10;;;10.00;90.20;;;;;;5035738;28;20299;-86
2021/05/28 05:30:24;;;;;;;12.70;8.20;;;10.00;90.60;;;;;;5035868;28;20184;-86
2021/05/28 05:32:49;;;;;;;11.80;7.37;;;10.10;90.20;;;;;;5017732;28;20204;-85
2021/05/28 05:35:15;;;;;;;14.17;8.30;;;10.10;90.20;;;;;;5035907;28;20694;-85
2021/05/28 05:37:41;;;;;;;13.73;8.57;;;10.20;90.30;;;;;;5017731;28;20173;-86
2021/05/28 05:40:08;;;;;;;15.80;9.70;;;10.20;89.80;;;;;;5035517;28;20173;-85
2021/05/28 05:42:36;;;;;;;15.73;9.20;;;10.20;90.10;;;;;;5017438;28;20240;-85
2021/05/28 05:45:03;;;;;;;20.13;11.17;;;10.10;90.20;;;;;;5017746;28;20279;-85
2021/05/28 05:47:29;;;;;;;23.00;10.43;;;10.20;90.40;;;;;;5035187;28;20185;-85
2021/05/28 05:49:54;;;;;;;20.87;10.57;;;10.20;90.10;;;;;;5035756;28;20175;-85
2021/05/28 05:52:20;;;;;;;17.80;9.63;;;10.20;90.30;;;;;;5035153;28;20626;-85
2021/05/28 05:54:46;;;;;;;14.63;9.50;;;10.20;90.30;;;;;;5035210;28;20201;-86
2021/05/28 05:57:12;;;;;;;14.57;9.30;;;10.20;90.10;;;;;;5017414;28;20208;-85
2021/05/28 05:59:38;;;;;;;19.27;9.67;;;10.20;90.00;;;;;;5017271;28;20219;-86
2021/05/28 06:02:04;;;;;;;14.57;9.10;;;10.00;89.70;;;;;;5034969;28;20181;-85
2021/05/28 06:04:29;;;;;;;13.67;8.63;;;10.00;89.70;;;;;;5035026;28;20173;-86
2021/05/28 06:06:55;;;;;;;17.10;8.57;;;10.00;89.90;;;;;;5034885;28;20211;-86
2021/05/28 06:09:20;;;;;;;15.03;8.73;;;10.10;89.90;;;;;;5035047;28;20177;-86
2021/05/28 06:11:46;;;;;;;19.73;9.40;;;10.00;89.90;;;;;;5017109;28;20181;-86
2021/05/28 06:14:12;;;;;;;24.00;10.17;;;10.10;90.10;;;;;;5034655;28;20291;-86
2021/05/28 06:16:37;;;;;;;16.53;7.63;;;10.00;90.00;;;;;;5034844;28;20223;-85
2021/05/28 06:19:03;;;;;;;12.20;7.57;;;10.00;89.70;;;;;;5034807;28;20202;-86
2021/05/28 06:21:31;;;;;;;13.60;8.73;;;9.90;89.40;;;;;;5016877;28;20181;-85
2021/05/28 06:23:57;;;;;;;19.27;8.47;;;9.90;89.20;;;;;;5034555;28;20244;-85
2021/05/28 06:26:23;;;;;;;16.47;8.57;;;9.90;89.20;;;;;;5034630;28;20523;-85
2021/05/28 06:28:48;;;;;;;13.27;8.20;;;9.90;89.00;;;;;;5016749;28;20180;-85
2021/05/28 06:31:14;;;;;;;28.43;7.97;;;9.90;89.20;;;;;;5016725;28;20547;-86
2021/05/28 06:33:40;;;;;;;12.53;9.23;;;10.00;89.20;;;;;;5016630;28;20232;-85
2021/05/28 06:36:05;;;;;;;16.97;9.60;;;9.90;89.30;;;;;;5016963;28;20210;-85
2021/05/28 06:38:31;;;;;;;18.57;9.97;;;9.90;89.30;;;;;;5016516;28;20177;-86
2021/05/28 06:40:57;;;;;;;16.87;9.00;;;9.90;89.20;;;;;;5034272;28;20176;-86
2021/05/28 06:43:22;;;;;;;17.47;8.27;;;10.00;89.10;;;;;;5016785;28;20262;-86
2021/05/28 06:45:48;;;;;;;16.60;9.07;;;10.00;89.20;;;;;;5034173;28;20251;-86
2021/05/28 06:48:14;;;;;;;20.23;9.57;;;10.00;89.00;;;;;;5016454;28;20175;-86
2021/05/28 06:50:41;;;;;;;18.83;8.77;;;10.00;89.10;;;;;;5034349;28;20180;-86
2021/05/28 06:53:08;;;;;;;19.13;10.33;;;10.00;89.10;;;;;;5034051;28;20189;-86
2021/05/28 06:55:34;;;;;;;18.17;9.90;;;10.10;89.00;;;;;;5016362;28;20206;-86
2021/05/28 06:58:00;;;;;;;20.93;9.33;;;10.10;89.10;;;;;;5016353;28;20184;-86
2021/05/28 07:00:26;;;;;;;21.77;9.67;;;10.20;89.20;;;;;;5016239;28;20220;-86
2021/05/28 07:02:55;;;;;;;17.33;9.67;;;10.10;89.00;;;;;;5016217;28;20243;-86
2021/05/28 07:05:23;;;;;;;20.70;9.10;;;10.20;89.20;;;;;;5016186;28;20188;-86
2021/05/28 07:07:49;;;;;;;21.33;9.97;;;10.20;89.30;;;;;;5016173;28;20185;-86
2021/05/28 07:10:15;;;;;;;19.03;9.70;;;10.20;88.80;;;;;;5033726;28;20587;-86
2021/05/28 07:12:41;;;;;;;16.63;10.00;;;10.20;88.90;;;;;;5015915;28;20204;-86
2021/05/28 07:15:08;;;;;;;21.20;11.37;;;10.30;89.10;;;;;;5033863;28;20544;-86
2021/05/28 07:17:34;;;;;;;21.17;10.63;;;10.40;88.90;;;;;;5015896;28;20284;-86
2021/05/28 07:20:00;;;;;;;29.97;11.33;;;10.40;88.50;;;;;;5033168;28;20172;-86
2021/05/28 07:22:26;;;;;;;22.80;10.43;;;10.50;88.70;;;;;;5015957;28;20201;-86
2021/05/28 07:24:52;;;;;;;16.00;9.83;;;10.60;88.60;;;;;;5015782;28;20665;-86
2021/05/28 07:27:17;;;;;;;19.43;10.57;;;10.60;88.80;;;;;;5033457;28;20680;-86
2021/05/28 07:29:43;;;;;;;19.57;10.57;;;10.70;88.80;;;;;;5033469;28;20173;-86
2021/05/28 07:32:09;;;;;;;14.07;10.37;;;10.80;88.80;;;;;;5015724;28;20207;-86
2021/05/28 07:34:36;;;;;;;20.73;9.57;;;10.90;88.80;;;;;;5033663;28;20656;-86
2021/05/28 07:37:02;;;;;;;22.37;10.33;;;11.00;88.50;;;;;;5015810;28;20176;-86
2021/05/28 07:39:28;;;;;;;14.60;10.10;;;11.00;88.00;;;;;;5033277;28;20302;-86
2021/05/28 07:41:53;;;;;;;16.60;8.53;;;11.10;88.40;;;;;;5015553;28;20177;-86
2021/05/28 07:44:19;;;;;;;15.20;10.03;;;11.20;88.00;;;;;;5033046;28;20621;-86
2021/05/28 07:46:45;;;;;;;15.20;9.43;;;11.30;87.60;;;;;;5033220;28;20238;-86
2021/05/28 07:49:12;;;;;;;15.50;8.70;;;11.30;86.70;;;;;;5015428;28;20191;-86
2021/05/28 07:51:38;;;;;;;20.77;9.80;;;11.30;87.30;;;;;;5033210;28;20200;-86
2021/05/28 07:54:05;;;;;;;15.37;10.70;;;11.30;87.00;;;;;;5015284;28;20639;-86
2021/05/28 07:56:32;;;;;;;23.37;13.77;;;11.40;87.20;;;;;;5015561;28;20272;-86
2021/05/28 07:58:57;;;;;;;20.50;11.90;;;11.30;86.50;;;;;;5033467;28;20612;-86
2021/05/28 08:01:23;;;;;;;19.20;11.17;;;11.40;86.60;;;;;;5015418;28;20204;-86
2021/05/28 08:03:49;;;;;;;18.93;10.10;;;11.60;86.60;;;;;;5015428;28;20726;-86
2021/05/28 08:06:14;;;;;;;18.20;9.60;;;11.50;86.10;;;;;;5015471;28;20591;-86
2021/05/28 08:08:40;;;;;;;13.20;8.73;;;11.50;86.40;;;;;;5032967;28;20255;-85
2021/05/28 08:11:07;;;;;;;13.87;8.57;;;11.40;85.50;;;;;;5032905;28;20173;-86
2021/05/28 08:13:33;;;;;;;18.20;8.33;;;11.40;85.70;;;;;;5032862;28;20609;-86
2021/05/28 08:15:59;;;;;;;14.00;9.03;;;11.50;85.70;;;;;;5015164;28;20201;-86
2021/05/28 08:18:26;;;;;;;17.30;8.73;;;11.60;86.00;;;;;;5015223;28;20176;-86
2021/05/28 08:20:53;;;;;;;18.63;9.40;;;11.60;85.80;;;;;;5033158;28;20169;-86
2021/05/28 08:23:19;;;;;;;15.77;8.13;;;11.70;85.40;;;;;;5032755;28;20193;-86
2021/05/28 08:25:44;;;;;;;17.40;9.00;;;11.80;85.70;;;;;;5015122;28;20176;-86
2021/05/28 08:28:10;;;;;;;20.47;9.33;;;12.00;85.30;;;;;;5015196;28;20272;-86
2021/05/28 08:30:36;;;;;;;17.17;8.03;;;12.20;85.50;;;;;;5032812;28;20188;-86
2021/05/28 08:33:02;;;;;;;15.47;8.23;;;12.20;84.80;;;;;;5017451;28;20196;-86
2021/05/28 08:35:27;;;;;;;16.07;8.17;;;12.30;84.70;;;;;;5018805;28;20207;-87
2021/05/28 08:37:53;;;;;;;16.83;9.57;;;12.50;84.60;;;;;;5018881;28;20177;-86
2021/05/28 08:40:19;;;;;;;14.77;8.97;;;12.60;84.90;;;;;;5018748;28;20172;-86
2021/05/28 08:42:45;;;;;;;20.50;8.83;;;12.70;84.60;;;;;;5018611;28;20576;-86
2021/05/28 08:45:11;;;;;;;18.07;9.03;;;12.70;84.30;;;;;;5036483;28;20165;-86
2021/05/28 08:47:40;;;;;;;23.90;9.67;;;12.40;82.70;;;;;;5036360;28;20169;-86
2021/05/28 08:50:07;;;;;;;21.77;8.27;;;12.20;83.60;;;;;;5018660;28;20183;-86
2021/05/28 08:52:33;;;;;;;22.03;9.93;;;12.30;83.70;;;;;;5036254;28;20192;-86
2021/05/28 08:54:58;;;;;;;21.07;9.73;;;12.20;84.20;;;;;;5018535;28;20204;-87
2021/05/28 08:57:25;;;;;;;21.07;10.00;;;12.00;84.60;;;;;;5018543;28;20172;-86
2021/05/28 08:59:51;;;;;;;17.23;9.50;;;12.30;85.30;;;;;;5018467;28;20173;-87
2021/05/28 09:02:32;;;;;;;16.90;8.77;;;12.60;85.60;;;;;;5018337;28;20618;-87
2021/05/28 09:05:05;;;;;;;15.50;7.80;;;12.70;84.50;;;;;;5018375;28;20223;-87
2021/05/28 09:07:31;;;;;;;21.27;8.53;;;12.70;83.10;;;;;;5018217;28;20200;-87
2021/05/28 09:09:56;;;;;;;19.40;8.83;;;12.50;82.90;;;;;;5018244;28;20219;-87
2021/05/28 09:12:26;;;;;;;23.77;9.43;;;12.50;84.20;;;;;;5035793;28;20668;-87
2021/05/28 09:14:52;;;;;;;21.10;9.50;;;12.60;84.00;;;;;;5036012;28;20201;-87
2021/05/28 09:17:18;;;;;;;19.50;9.00;;;12.60;84.60;;;;;;5018153;28;20176;-87
2021/05/28 09:19:52;;;;;;;17.80;8.37;;;12.50;84.10;;;;;;5017996;28;20563;-87
2021/05/28 09:22:19;;;;;;;17.03;8.77;;;12.70;84.00;;;;;;5017971;28;20173;-87
2021/05/28 09:24:45;;;;;;;17.73;8.23;;;12.80;83.90;;;;;;5035760;28;20645;-87
2021/05/28 09:27:18;;;;;;;23.63;8.83;;;12.70;83.20;;;;;;5035606;28;20180;-87
2021/05/28 09:30:07;;;;;;;19.83;8.90;;;12.60;84.00;;;;;;5017964;28;20177;-87
2021/05/28 09:32:34;;;;;;;19.30;8.07;;;12.30;85.40;;;;;;5017817;28;20567;-86
2021/05/28 09:35:00;;;;;;;18.43;7.50;;;12.30;85.30;;;;;;5035419;28;20196;-87
2021/05/28 09:37:36;;;;;;;13.97;8.17;;;12.20;85.40;;;;;;5017716;28;20164;-87
2021/05/28 09:40:18;;;;;;;17.57;8.43;;;12.30;86.10;;;;;;5035580;28;20195;-87
2021/05/28 09:42:51;;;;;;;23.73;10.03;;;12.30;85.20;;;;;;5017056;28;20209;-86
2021/05/28 09:45:34;;;;;;;19.80;9.03;;;12.20;85.60;;;;;;5017596;28;20173;-86
2021/05/28 09:48:03;;;;;;;18.50;9.37;;;12.00;85.90;;;;;;5017572;28;20164;-86
2021/05/28 09:50:33;;;;;;;15.83;8.60;;;12.30;86.60;;;;;;5035207;28;20176;-86
2021/05/28 09:53:05;;;;;;;19.63;9.90;;;12.30;86.00;;;;;;5017349;28;20299;-85
2021/05/28 09:55:32;;;;;;;15.40;8.60;;;12.30;86.40;;;;;;5017352;28;20204;-88
2021/05/28 09:57:59;;;;;;;19.37;7.47;;;12.40;86.60;;;;;;5017743;28;20268;-88
2021/05/28 10:00:24;;;;;;;12.67;7.37;;;12.30;86.10;;;;;;5017460;28;20172;-88
2021/05/28 10:03:11;;;;;;;16.40;8.30;;;12.40;86.30;;;;;;5017344;28;20196;-88
2021/05/28 10:05:38;;;;;;;21.47;8.40;;;12.70;86.60;;;;;;5034134;28;20192;-88
2021/05/28 10:08:09;;;;;;;12.70;8.10;;;13.00;86.60;;;;;;5017262;28;20200;-88
2021/05/28 10:10:36;;;;;;;23.30;7.87;;;13.20;85.50;;;;;;5017250;28;20179;-88
2021/05/28 10:13:11;;;;;;;21.47;8.23;;;13.20;83.90;;;;;;5017449;28;20228;-90
2021/05/28 10:15:44;;;;;;;22.97;8.90;;;13.00;83.00;;;;;;5017001;28;20196;-90
2021/05/28 10:18:11;;;;;;;17.73;7.67;;;12.80;83.90;;;;;;5017609;28;20207;-90
2021/05/28 10:20:39;;;;;;;16.20;8.07;;;12.80;83.40;;;;;;5017112;28;20200;-90
2021/05/28 10:23:06;;;;;;;20.63;8.17;;;12.70;83.90;;;;;;5017629;28;20633;-90
2021/05/28 10:25:32;;;;;;;16.60;8.13;;;12.80;83.50;;;;;;5017672;28;20213;-90
2021/05/28 10:28:03;;;;;;;17.67;7.43;;;12.80;84.00;;;;;;5017152;28;20275;-90
2021/05/28 10:30:38;;;;;;;17.50;8.57;;;12.90;84.20;;;;;;5017942;28;20164;-90
2021/05/28 10:33:25;;;;;;;14.07;6.27;;;12.90;84.10;;;;;;5016936;28;20198;-90
2021/05/28 10:36:03;;;;;;;20.33;8.40;;;12.80;82.40;;;;;;5016789;28;20667;-90
2021/05/28 10:38:36;;;;;;;21.10;7.70;;;12.80;83.60;;;;;;5016827;28;20628;-90
2021/05/28 10:41:05;;;;;;;17.67;8.37;;;12.90;83.70;;;;;;5017136;28;20196;-90
2021/05/28 10:43:35;;;;;;;18.10;8.57;;;13.00;84.20;;;;;;5016490;28;20204;-90
2021/05/28 10:46:05;;;;;;;18.50;8.17;;;13.10;83.30;;;;;;5016564;28;20176;-90
2021/05/28 10:48:39;;;;;;;18.40;7.97;;;13.20;83.60;;;;;;5016559;28;20173;-90
2021/05/28 10:51:23;;;;;;;15.53;7.33;;;13.30;82.40;;;;;;5016420;28;20200;-90
2021/05/28 10:53:51;;;;;;;14.50;6.83;;;13.20;81.20;;;;;;5016456;28;20680;-90
2021/05/28 10:56:33;;;;;;;15.83;7.53;;;13.40;82.20;;;;;;5015834;28;20263;-90
2021/05/28 10:59:10;;;;;;;13.90;7.60;;;13.90;82.60;;;;;;5016738;28;20259;-90
2021/05/28 11:01:46;;;;;;;14.00;5.83;;;14.00;81.30;;;;;;5016405;28;20215;-90
2021/05/28 11:04:17;;;;;;;16.57;7.70;;;13.80;79.10;;;;;;5016519;28;20210;-90
2021/05/28 11:06:55;;;;;;;13.20;6.83;;;14.00;81.80;;;;;;5016252;28;20175;-90
2021/05/28 11:09:41;;;;;;;17.00;6.00;;;14.30;81.40;;;;;;5033792;28;20181;-90
2021/05/28 11:12:11;;;;;;;13.40;6.60;;;14.50;79.70;;;;;;5016061;28;20177;-90
2021/05/28 11:14:58;;;;;;;13.13;5.73;;;14.80;77.60;;;;;;5016245;28;20197;-92
2021/05/28 11:17:24;;;;;;;14.57;5.93;;;14.80;77.40;;;;;;5016269;28;20169;-92
2021/05/28 11:19:52;;;;;;;19.07;6.03;;;14.80;78.00;;;;;;5016430;28;20238;-92
2021/05/28 11:22:29;;;;;;;17.50;6.60;;;14.60;77.40;;;;;;5016289;28;20177;-92
2021/05/28 11:25:01;;;;;;;17.57;7.07;;;14.90;79.00;;;;;;5016452;28;20180;-92
2021/05/28 11:27:26;;;;;;;17.13;7.47;;;14.80;78.50;;;;;;5034122;28;20219;-92
2021/05/28 11:29:53;;;;;;;18.67;5.97;;;14.90;77.90;;;;;;5016014;28;20583;-93
2021/05/28 11:32:30;;;;;;;18.53;6.40;;;14.90;77.20;;;;;;5015811;28;20184;-92
2021/05/28 11:35:14;;;;;;;18.73;7.40;;;14.90;78.40;;;;;;5016176;28;20235;-92
2021/05/28 11:37:43;;;;;;;16.87;6.57;;;14.80;78.90;;;;;;5015878;28;20191;-92
2021/05/28 11:40:14;;;;;;;15.97;6.07;;;14.90;78.30;;;;;;5015877;28;20181;-93
2021/05/28 11:42:41;;;;;;;16.47;5.93;;;14.70;77.60;;;;;;5015640;28;20236;-92
2021/05/28 11:45:12;;;;;;;22.30;6.93;;;14.70;77.40;;;;;;5016004;28;20219;-92
2021/05/28 11:47:39;;;;;;;17.83;6.93;;;14.60;78.80;;;;;;5016137;28;20176;-93
2021/05/28 11:50:08;;;;;;;18.23;6.50;;;14.60;78.70;;;;;;5015899;28;20184;-92
2021/05/28 11:52:33;;;;;;;24.83;6.70;;;14.50;78.90;;;;;;5015934;28;20201;-93
2021/05/28 11:55:11;;;;;;;22.80;7.80;;;14.20;78.90;;;;;;5015832;28;20203;-92
2021/05/28 11:57:38;;;;;;;21.20;7.30;;;14.20;79.10;;;;;;5016467;28;20157;-93
2021/05/28 12:00:10;;;;;;;20.97;6.03;;;14.20;80.40;;;;;;5016600;28;20176;-92
2021/05/28 12:02:49;;;;;;;18.07;6.60;;;14.00;78.80;;;;;;5015714;28;20192;-92
2021/05/28 12:05:26;;;;;;;14.23;6.23;;;14.00;79.20;;;;;;5015612;28;20176;-90
2021/05/28 12:07:52;;;;;;;18.20;6.83;;;13.80;80.70;;;;;;5019617;28;20161;-90
2021/05/28 12:10:19;;;;;;;20.67;6.70;;;13.70;81.00;;;;;;5019413;28;20199;-90
2021/05/28 12:12:56;;;;;;;25.03;7.00;;;13.40;82.30;;;;;;5019909;28;20224;-90
2021/05/28 12:15:31;;;;;;;18.47;7.17;;;13.50;82.80;;;;;;5019420;28;20263;-90
2021/05/28 12:17:58;;;;;;;16.70;7.00;;;13.40;83.10;;;;;;5019475;28;20164;-90
2021/05/28 12:20:31;;;;;;;13.77;6.63;;;13.30;83.40;;;;;;5020174;28;20226;-90
2021/05/28 12:23:04;;;;;;;20.73;7.07;;;13.10;84.20;;;;;;5019187;28;20286;-91
2021/05/28 12:25:36;;;;;;;17.77;7.30;;;12.90;84.90;;;;;;5019250;28;20165;-91
2021/05/28 12:28:13;;;;;;;18.83;7.70;;;12.90;85.10;;;;;;5036991;28;20515;-91
2021/05/28 12:30:41;;;;;;;15.63;7.53;;;12.80;85.60;;;;;;5037159;28;20506;-91
2021/05/28 12:33:08;;;;;;;20.43;9.00;;;12.60;86.60;;;;;;5036743;28;20196;-91
2021/05/28 12:35:34;;;;;;;17.53;8.23;;;12.60;86.90;;;;;;5019110;28;20196;-91
2021/05/28 12:38:14;;;;;;;22.77;8.63;;;12.50;87.30;;;;;;5019902;28;20183;-90
2021/05/28 12:40:47;;;;;;;17.17;8.27;;;12.70;87.60;;;;;;5019003;28;20168;-90
2021/05/28 12:43:21;;;;;;;24.57;9.40;;;12.50;87.40;;;;;;5018775;28;20215;-91
2021/05/28 12:45:47;;;;;;;21.53;9.07;;;12.50;87.50;;;;;;5018857;28;20259;-91